Time;durP1;ratioP1;P1;durP2;ratioP2;P2;SDS_P1;SDS_P2;PMS_P1;PMS_P2;Temp;Humidity;BMP_temperature;BMP_pressure;BME280_temperature;BME280_humidity;BME280_pressure;Samples;Min_cycle;Max_cycle;Signal;HPM_P1;HPM_P2
2021/03/27 00:01:59;;;;;;;8.10;5.00;;;12.50;1.00;;;;;;4950642;29;20111;-77
2021/03/27 00:04:41;;;;;;;5.95;5.07;;;12.50;28.60;;;;;;4968241;29;20019;-78
2021/03/27 00:07:24;;;;;;;5.75;4.60;;;12.50;99.90;;;;;;4971073;29;20034;-80
2021/03/27 00:10:36;;;;;;;6.93;5.18;;;12.60;99.90;;;;;;4967810;29;20019;-78
2021/03/27 00:13:17;;;;;;;7.28;4.75;;;12.70;99.90;;;;;;4951010;29;20031;-79
2021/03/27 00:16:31;;;;;;;6.03;4.80;;;12.70;99.90;;;;;;4951796;29;20030;-78
2021/03/27 00:19:09;;;;;;;7.45;5.72;;;12.70;99.90;;;;;;4946681;29;20137;-77
2021/03/27 00:21:50;;;;;;;6.47;4.95;;;12.70;99.90;;;;;;4967220;28;20023;-77
2021/03/27 00:24:24;;;;;;;5.97;5.32;;;12.70;99.90;;;;;;4987709;28;20019;-78
2021/03/27 00:26:59;;;;;;;6.15;4.32;;;12.80;99.90;;;;;;4960488;29;20133;-79
2021/03/27 00:29:42;;;;;;;4.82;4.15;;;12.80;99.90;;;;;;4961443;28;20503;-79
2021/03/27 00:32:18;;;;;;;5.60;4.47;;;12.70;99.90;;;;;;4963919;28;20035;-79
2021/03/27 00:34:54;;;;;;;5.05;3.90;;;12.70;99.90;;;;;;4948383;28;20036;-76
2021/03/27 00:37:29;;;;;;;4.05;3.65;;;12.80;99.90;;;;;;4961496;28;20035;-78
2021/03/27 00:40:06;;;;;;;5.00;4.15;;;12.80;99.90;;;;;;4969133;23;20050;-76
2021/03/27 00:42:37;;;;;;;4.72;3.83;;;12.80;99.90;;;;;;4966580;28;20577;-77
2021/03/27 00:45:21;;;;;;;7.57;3.85;;;12.70;99.90;;;;;;4954618;29;20058;-75
2021/03/27 00:47:56;;;;;;;4.97;3.83;;;12.70;1.00;;;;;;4966859;29;20038;-75
2021/03/27 00:50:35;;;;;;;4.72;3.50;;;12.60;1.00;;;;;;4954655;29;20078;-76
2021/03/27 00:53:24;;;;;;;3.88;3.47;;;12.50;1.00;;;;;;4955147;29;20023;-77
2021/03/27 00:55:58;;;;;;;6.53;3.40;;;12.50;1.00;;;;;;4956379;29;20214;-78
2021/03/27 00:58:38;;;;;;;3.83;3.30;;;12.50;1.00;;;;;;4963710;29;20035;-78
2021/03/27 01:01:07;;;;;;;4.47;3.10;;;12.50;1.00;;;;;;4928372;29;20085;-77
2021/03/27 01:04:00;;;;;;;4.10;3.70;;;12.50;1.00;;;;;;4949121;29;20027;-76
2021/03/27 01:06:47;;;;;;;4.88;3.72;;;12.40;1.00;;;;;;4930315;29;20027;-74
2021/03/27 01:09:15;;;;;;;4.13;3.55;;;12.30;1.00;;;;;;4953185;29;20062;-74
2021/03/27 01:11:54;;;;;;;3.92;3.63;;;12.30;1.00;;;;;;4952386;29;20373;-74
2021/03/27 01:14:27;;;;;;;4.22;3.45;;;12.30;1.00;;;;;;4939043;29;20495;-75
2021/03/27 01:16:59;;;;;;;7.57;3.70;;;12.30;1.00;;;;;;4940019;29;20031;-75
2021/03/27 01:19:42;;;;;;;5.20;3.67;;;12.40;1.00;;;;;;4923328;29;20027;-74
2021/03/27 01:22:11;;;;;;;9.95;4.95;;;12.40;1.00;;;;;;4939639;29;20056;-73
2021/03/27 01:24:37;;;;;;;5.55;3.65;;;12.30;3.80;;;;;;4939859;29;20038;-73
2021/03/27 01:27:12;;;;;;;4.07;3.55;;;12.20;40.00;;;;;;4923726;29;20467;-76
2021/03/27 01:29:55;;;;;;;6.35;4.00;;;12.20;65.70;;;;;;4926358;29;20027;-73
2021/03/27 01:32:45;;;;;;;4.60;3.88;;;12.10;87.80;;;;;;4937152;29;20064;-75
2021/03/27 01:35:34;;;;;;;4.30;3.90;;;12.00;99.90;;;;;;4934316;29;20023;-75
2021/03/27 01:38:12;;;;;;;5.45;3.83;;;11.90;99.90;;;;;;4971479;28;20036;-74
2021/03/27 01:40:57;;;;;;;4.63;4.10;;;11.80;99.90;;;;;;4956254;29;20036;-75
2021/03/27 01:43:53;;;;;;;4.53;3.38;;;11.70;99.90;;;;;;4947596;29;20058;-74
2021/03/27 01:46:34;;;;;;;6.60;3.95;;;11.70;99.90;;;;;;4947179;29;20385;-73
2021/03/27 01:49:40;;;;;;;3.60;3.30;;;11.80;99.90;;;;;;4941894;29;20526;-72
2021/03/27 01:52:13;;;;;;;4.70;3.75;;;11.70;99.90;;;;;;4949182;29;20031;-73
2021/03/27 01:55:27;;;;;;;4.18;3.85;;;11.60;99.90;;;;;;4935455;29;20031;-73
2021/03/27 01:58:02;;;;;;;4.25;3.55;;;11.50;99.90;;;;;;4928137;29;20040;-74
2021/03/27 02:00:34;;;;;;;4.25;3.85;;;11.50;99.90;;;;;;4939350;29;20040;-74
2021/03/27 02:03:11;;;;;;;4.93;4.25;;;11.40;99.90;;;;;;4948241;29;20483;-74
2021/03/27 02:06:04;;;;;;;7.75;3.83;;;11.30;99.90;;;;;;4945240;29;20034;-74
2021/03/27 02:08:44;;;;;;;4.43;4.00;;;11.20;99.90;;;;;;4940396;29;20372;-75
2021/03/27 02:11:28;;;;;;;3.83;3.53;;;11.20;99.90;;;;;;4923186;29;20039;-73
2021/03/27 02:14:08;;;;;;;4.78;3.80;;;11.20;99.90;;;;;;4945837;29;20024;-75
2021/03/27 02:16:44;;;;;;;5.38;4.18;;;11.10;99.90;;;;;;4948758;29;20069;-73
2021/03/27 02:19:31;;;;;;;5.55;4.13;;;11.10;99.90;;;;;;4953703;29;20027;-74
2021/03/27 02:22:14;;;;;;;5.70;4.32;;;11.10;99.90;;;;;;4952322;29;20023;-74
2021/03/27 02:25:12;;;;;;;5.63;4.45;;;11.00;99.90;;;;;;4929245;29;20555;-75
2021/03/27 02:27:57;;;;;;;6.45;4.30;;;11.00;99.90;;;;;;4920747;29;20059;-73
2021/03/27 02:30:45;;;;;;;4.55;4.15;;;10.90;99.90;;;;;;4938850;29;20026;-74
2021/03/27 02:33:19;;;;;;;6.45;4.88;;;10.80;99.90;;;;;;4945771;29;20028;-74
2021/03/27 02:36:15;;;;;;;5.35;4.78;;;10.80;99.90;;;;;;4955604;29;20052;-75
2021/03/27 02:39:05;;;;;;;5.45;4.90;;;10.90;99.90;;;;;;4956120;29;20027;-74
2021/03/27 02:41:41;;;;;;;5.00;4.45;;;10.80;99.90;;;;;;4954663;29;20055;-75
2021/03/27 02:44:15;;;;;;;4.80;4.32;;;10.70;99.90;;;;;;4946759;28;20028;-75
2021/03/27 02:46:47;;;;;;;4.78;4.22;;;10.70;99.90;;;;;;4947941;29;20031;-74
2021/03/27 02:49:34;;;;;;;6.10;5.28;;;10.70;99.90;;;;;;4944779;29;20030;-72
2021/03/27 02:52:28;;;;;;;6.75;4.88;;;10.60;99.90;;;;;;4945160;29;20055;-74
2021/03/27 02:55:14;;;;;;;5.22;4.72;;;10.70;99.90;;;;;;4948903;29;20027;-75
2021/03/27 02:58:06;;;;;;;5.10;4.60;;;10.70;99.90;;;;;;4951968;29;20044;-74
2021/03/27 03:00:53;;;;;;;5.10;4.60;;;10.60;99.90;;;;;;4961536;29;20012;-74
2021/03/27 03:03:27;;;;;;;5.40;4.00;;;10.60;99.90;;;;;;4944030;29;20035;-74
2021/03/27 03:06:34;;;;;;;5.10;4.60;;;10.60;99.90;;;;;;4956547;29;20048;-73
2021/03/27 03:09:23;;;;;;;6.32;4.63;;;10.50;99.90;;;;;;4899447;29;20492;-74
2021/03/27 03:11:49;;;;;;;4.55;4.15;;;10.50;99.90;;;;;;4946192;29;20075;-74
2021/03/27 03:14:21;;;;;;;5.20;4.25;;;10.50;99.90;;;;;;4942546;29;20027;-74
2021/03/27 03:17:13;;;;;;;5.80;4.57;;;10.50;99.90;;;;;;4944410;29;20063;-74
2021/03/27 03:19:53;;;;;;;;;;;10.50;99.90;;;;;;4943813;29;20111;-74
2021/03/27 03:22:31;;;;;;;3.90;3.53;;;10.50;99.90;;;;;;4927294;29;19910;-74
2021/03/27 03:25:00;;;;;;;5.45;4.00;;;10.50;99.90;;;;;;4930940;29;20027;-75
2021/03/27 03:27:45;;;;;;;3.85;3.45;;;10.50;99.90;;;;;;4959665;29;20501;-75
2021/03/27 03:30:46;;;;;;;3.92;3.58;;;10.50;99.90;;;;;;4942969;29;20092;-74
2021/03/27 03:33:37;;;;;;;3.20;2.88;;;10.50;99.90;;;;;;4927399;29;20492;-74
2021/03/27 03:36:44;;;;;;;4.15;3.72;;;10.60;99.90;;;;;;4939005;29;20098;-75
2021/03/27 03:39:12;;;;;;;3.53;3.13;;;10.60;99.90;;;;;;4952743;29;20128;-75
2021/03/27 03:41:54;;;;;;;3.88;3.47;;;10.60;99.90;;;;;;4953782;29;20541;-72
2021/03/27 03:44:39;;;;;;;3.85;3.45;;;10.60;99.90;;;;;;4943895;29;20030;-74
2021/03/27 03:47:16;;;;;;;4.43;3.45;;;10.50;99.90;;;;;;4955268;29;20035;-75
2021/03/27 03:50:07;;;;;;;4.15;3.63;;;10.50;99.90;;;;;;4954186;29;20031;-76
2021/03/27 03:52:56;;;;;;;3.38;2.38;;;10.30;99.90;;;;;;4943726;29;20022;-75
2021/03/27 03:55:36;;;;;;;2.22;1.58;;;10.10;99.90;;;;;;4921797;29;20031;-74
2021/03/27 03:58:37;;;;;;;0.77;0.77;;;10.00;99.90;;;;;;4926560;29;20027;-74
2021/03/27 04:01:08;;;;;;;0.80;0.80;;;9.70;99.90;;;;;;4915028;29;20028;-75
2021/03/27 04:03:36;;;;;;;2.00;1.20;;;9.60;99.90;;;;;;4930427;29;20511;-75
2021/03/27 04:06:06;;;;;;;1.00;0.68;;;9.50;99.90;;;;;;4939190;29;20097;-75
2021/03/27 04:09:10;;;;;;;1.05;0.50;;;9.30;99.90;;;;;;4939324;29;20027;-73
2021/03/27 04:11:46;;;;;;;0.90;0.90;;;9.30;99.90;;;;;;4941902;29;20027;-74
2021/03/27 04:14:24;;;;;;;0.98;0.57;;;9.20;99.90;;;;;;4954638;29;20115;-74
2021/03/27 04:16:52;;;;;;;0.60;0.60;;;9.20;99.90;;;;;;4941667;29;20046;-74
2021/03/27 04:19:26;;;;;;;1.98;0.80;;;9.10;99.90;;;;;;4948050;29;20055;-74
2021/03/27 04:22:23;;;;;;;0.63;0.40;;;9.00;99.90;;;;;;4953011;29;20102;-74
2021/03/27 04:25:16;;;;;;;0.50;0.40;;;8.90;99.90;;;;;;4954925;29;20051;-74
2021/03/27 04:27:49;;;;;;;0.82;0.50;;;8.90;99.90;;;;;;4947639;29;20028;-72
2021/03/27 04:30:26;;;;;;;1.52;0.50;;;8.90;99.90;;;;;;4951199;29;20055;-75
2021/03/27 04:33:07;;;;;;;0.65;0.40;;;8.80;99.90;;;;;;4951329;29;21426;-74
2021/03/27 04:35:49;;;;;;;1.13;0.55;;;8.70;99.90;;;;;;4941737;29;20031;-75
2021/03/27 04:38:24;;;;;;;0.60;0.40;;;8.70;99.90;;;;;;4941315;29;20028;-74
2021/03/27 04:40:57;;;;;;;1.23;0.50;;;8.70;99.90;;;;;;4932403;29;20031;-74
2021/03/27 04:43:22;;;;;;;0.68;0.60;;;8.60;99.90;;;;;;4945568;29;20032;-74
2021/03/27 04:45:57;;;;;;;0.40;0.40;;;8.60;99.90;;;;;;4949882;29;20035;-75
2021/03/27 04:48:41;;;;;;;1.20;0.70;;;8.60;99.90;;;;;;4929264;29;20492;-74
2021/03/27 04:51:25;;;;;;;0.30;0.30;;;8.60;99.90;;;;;;4949765;29;20030;-72
2021/03/27 04:54:20;;;;;;;1.23;0.60;;;8.60;99.90;;;;;;4953258;29;20027;-75
2021/03/27 04:57:14;;;;;;;0.47;0.40;;;8.60;99.90;;;;;;4945228;29;20034;-74
2021/03/27 05:00:05;;;;;;;0.60;0.50;;;8.60;99.90;;;;;;4944419;29;20090;-75
2021/03/27 05:02:36;;;;;;;0.50;0.50;;;8.60;99.90;;;;;;4931999;29;20028;-73
2021/03/27 05:05:26;;;;;;;0.30;0.30;;;8.60;99.90;;;;;;4944646;29;20491;-75
2021/03/27 05:08:02;;;;;;;1.42;0.50;;;8.60;99.90;;;;;;4947098;29;20032;-73
2021/03/27 05:10:40;;;;;;;0.40;0.38;;;8.50;99.90;;;;;;4931777;29;20082;-74
2021/03/27 05:13:28;;;;;;;1.33;0.50;;;8.40;99.90;;;;;;4948322;29;20039;-75
2021/03/27 05:16:14;;;;;;;0.40;0.40;;;8.20;99.90;;;;;;4945427;29;20023;-74
2021/03/27 05:18:51;;;;;;;0.40;0.40;;;8.10;99.90;;;;;;4926358;29;20031;-74
2021/03/27 05:21:35;;;;;;;0.40;0.40;;;8.10;99.90;;;;;;4945040;29;20511;-73
2021/03/27 05:24:37;;;;;;;0.70;0.50;;;8.10;99.90;;;;;;4929522;29;20070;-74
2021/03/27 05:27:20;;;;;;;0.35;0.35;;;8.10;99.90;;;;;;4946789;29;20056;-73
2021/03/27 05:30:14;;;;;;;0.80;0.40;;;8.00;99.90;;;;;;4942130;29;20052;-73
2021/03/27 05:32:50;;;;;;;0.60;0.50;;;8.00;99.90;;;;;;4961063;29;20043;-73
2021/03/27 05:35:34;;;;;;;0.95;0.50;;;7.90;99.90;;;;;;4955556;29;20019;-74
2021/03/27 05:38:09;;;;;;;0.98;0.60;;;8.00;99.90;;;;;;4947691;29;20028;-73
2021/03/27 05:41:15;;;;;;;0.50;0.40;;;8.00;99.90;;;;;;4934060;29;20026;-75
2021/03/27 05:44:20;;;;;;;0.40;0.40;;;7.90;99.90;;;;;;4956422;29;20098;-73
2021/03/27 05:47:21;;;;;;;0.75;0.43;;;7.90;99.90;;;;;;4927723;29;20028;-74
2021/03/27 05:50:14;;;;;;;0.40;0.40;;;7.80;99.90;;;;;;4907211;29;20122;-74
2021/03/27 05:53:01;;;;;;;0.57;0.50;;;7.80;99.90;;;;;;4945851;29;20035;-73
2021/03/27 05:56:13;;;;;;;0.50;0.50;;;7.80;99.90;;;;;;4953070;29;20532;-74
2021/03/27 05:58:57;;;;;;;0.50;0.50;;;7.80;99.90;;;;;;4914015;29;20067;-74
2021/03/27 06:01:32;;;;;;;1.48;0.40;;;7.80;99.90;;;;;;4960645;29;20031;-74
2021/03/27 06:04:15;;;;;;;1.45;0.50;;;7.80;99.90;;;;;;4954152;29;20100;-75
2021/03/27 06:07:05;;;;;;;0.32;0.32;;;7.80;99.90;;;;;;4930717;29;20035;-73
2021/03/27 06:09:44;;;;;;;0.40;0.40;;;7.80;99.90;;;;;;4949338;29;20062;-74
2021/03/27 06:12:12;;;;;;;1.42;0.50;;;7.90;99.90;;;;;;4944466;29;20031;-75
2021/03/27 06:15:03;;;;;;;0.68;0.43;;;7.80;72.50;;;;;;4957564;29;20452;-73
2021/03/27 06:18:12;;;;;;;1.67;0.38;;;7.90;65.70;;;;;;4949688;28;20063;-72
2021/03/27 06:21:03;;;;;;;0.40;0.40;;;7.90;99.90;;;;;;4938931;29;20110;-75
2021/03/27 06:23:47;;;;;;;3.92;1.00;;;7.90;1.00;;;;;;4931951;29;20008;-73
2021/03/27 06:26:36;;;;;;;1.30;0.50;;;7.90;47.10;;;;;;4940172;29;20499;-74
2021/03/27 06:29:26;;;;;;;0.45;0.35;;;7.80;40.30;;;;;;4924294;29;20040;-73
2021/03/27 06:32:13;;;;;;;0.88;0.40;;;7.90;56.90;;;;;;4941559;29;20027;-74
2021/03/27 06:35:09;;;;;;;0.70;0.50;;;7.80;40.00;;;;;;4934301;29;20038;-74
2021/03/27 06:38:09;;;;;;;0.63;0.55;;;7.80;43.50;;;;;;4956373;29;20032;-73
2021/03/27 06:40:59;;;;;;;0.85;0.40;;;7.80;57.80;;;;;;4984891;23;20039;-75
2021/03/27 06:43:40;;;;;;;4.65;1.35;;;7.90;99.90;;;;;;4964571;28;20031;-76
2021/03/27 06:46:33;;;;;;;1.05;0.68;;;7.90;6.40;;;;;;4965641;28;20030;-76
2021/03/27 06:49:20;;;;;;;0.85;0.50;;;7.90;43.50;;;;;;4962999;28;20054;-77
2021/03/27 06:52:03;;;;;;;2.22;0.80;;;7.90;1.00;;;;;;4956190;28;20014;-77
2021/03/27 06:54:47;;;;;;;3.92;0.80;;;8.00;7.70;;;;;;4951445;28;20028;-77
2021/03/27 06:57:52;;;;;;;0.45;0.45;;;8.20;1.00;;;;;;4952577;28;20042;-76
2021/03/27 07:00:41;;;;;;;1.77;0.65;;;8.40;1.00;;;;;;4950178;28;20035;-75
2021/03/27 07:03:38;;;;;;;0.73;0.50;;;8.60;99.90;;;;;;4976376;28;20023;-76
2021/03/27 07:06:42;;;;;;;0.88;0.45;;;8.90;1.00;;;;;;4964240;28;20023;-77
2021/03/27 07:09:42;;;;;;;1.13;0.65;;;9.20;99.90;;;;;;4944774;29;20031;-78
2021/03/27 07:12:36;;;;;;;2.20;0.40;;;9.40;99.90;;;;;;4937043;28;20614;-77
2021/03/27 07:15:30;;;;;;;1.33;0.70;;;9.60;99.90;;;;;;4953302;28;20038;-77
2021/03/27 07:18:14;;;;;;;1.00;0.50;;;9.90;1.00;;;;;;4946028;28;20101;-77
2021/03/27 07:21:06;;;;;;;1.02;0.55;;;9.80;99.90;;;;;;4943595;28;20038;-76
2021/03/27 07:23:55;;;;;;;1.63;0.47;;;9.50;1.00;;;;;;4950259;28;20039;-75
2021/03/27 07:26:27;;;;;;;0.65;0.50;;;9.40;1.00;;;;;;4948694;28;20031;-77
2021/03/27 07:29:31;;;;;;;0.82;0.40;;;9.30;1.00;;;;;;4965742;28;20038;-79
2021/03/27 07:32:35;;;;;;;1.95;0.60;;;9.50;99.90;;;;;;4892686;29;20043;-77
2021/03/27 07:35:24;;;;;;;2.80;0.60;;;9.40;1.00;;;;;;4943798;29;20134;-77
2021/03/27 07:38:11;;;;;;;1.73;0.63;;;9.40;1.00;;;;;;4973720;28;20031;-77
2021/03/27 07:40:45;;;;;;;1.77;0.88;;;9.50;92.70;;;;;;4969712;28;20046;-77
2021/03/27 07:43:38;;;;;;;3.25;0.60;;;9.60;99.90;;;;;;4985654;28;20035;-78
2021/03/27 07:46:30;;;;;;;0.60;0.30;;;9.50;1.00;;;;;;4983006;28;20062;-76
2021/03/27 07:49:23;;;;;;;3.08;0.90;;;9.20;99.90;;;;;;4957550;28;20026;-78
2021/03/27 07:51:58;;;;;;;1.35;0.50;;;9.40;99.90;;;;;;4964498;28;20020;-77
2021/03/27 07:54:26;;;;;;;1.92;0.85;;;9.40;61.90;;;;;;4968684;28;20114;-76
2021/03/27 07:57:37;;;;;;;1.73;0.50;;;9.50;24.70;;;;;;4952325;29;20063;-77
2021/03/27 08:00:28;;;;;;;1.42;0.45;;;9.50;1.00;;;;;;4967007;28;20095;-77
2021/03/27 08:03:15;;;;;;;1.85;0.50;;;9.70;99.90;;;;;;4969503;28;20020;-76
2021/03/27 08:05:46;;;;;;;2.22;0.63;;;9.60;99.90;;;;;;4967727;28;20023;-77
2021/03/27 08:08:37;;;;;;;1.98;0.90;;;9.80;51.40;;;;;;4970148;28;20110;-77
2021/03/27 08:11:29;;;;;;;3.88;0.70;;;9.80;99.90;;;;;;4957543;29;20039;-77
2021/03/27 08:14:25;;;;;;;0.68;0.40;;;10.20;99.90;;;;;;4965357;28;20491;-77
2021/03/27 08:17:15;;;;;;;1.75;0.40;;;10.40;99.90;;;;;;4967392;28;20467;-76
2021/03/27 08:19:56;;;;;;;0.77;0.50;;;10.40;99.90;;;;;;4957773;28;20035;-75
2021/03/27 08:22:56;;;;;;;1.58;0.60;;;10.30;99.90;;;;;;4956033;28;20023;-74
2021/03/27 08:25:33;;;;;;;1.42;0.40;;;10.40;99.90;;;;;;4970979;28;20031;-77
2021/03/27 08:28:23;;;;;;;0.95;0.40;;;10.00;1.00;;;;;;4951013;29;20450;-77
2021/03/27 08:31:10;;;;;;;2.97;1.20;;;9.90;99.90;;;;;;4966527;28;20399;-76
2021/03/27 08:33:54;;;;;;;1.65;0.50;;;9.80;99.90;;;;;;4970261;28;20090;-76
2021/03/27 08:36:48;;;;;;;0.90;0.50;;;9.80;99.90;;;;;;4978814;28;20022;-77
2021/03/27 08:39:52;;;;;;;0.93;0.50;;;9.30;99.90;;;;;;4967961;28;20007;-77
2021/03/27 08:42:26;;;;;;;0.75;0.40;;;9.20;1.00;;;;;;4990434;28;20031;-74
2021/03/27 08:45:16;;;;;;;1.20;0.60;;;9.30;1.00;;;;;;4979777;28;20038;-77
2021/03/27 08:48:25;;;;;;;2.20;0.30;;;9.40;1.00;;;;;;4958088;28;20023;-76
2021/03/27 08:51:26;;;;;;;0.47;0.30;;;9.50;1.00;;;;;;4949695;28;20026;-77
2021/03/27 08:54:15;;;;;;;;;;;9.40;99.90;;;;;;4969306;28;20031;-77
2021/03/27 08:57:03;;;;;;;0.63;0.28;;;9.50;99.90;;;;;;4972163;28;19918;-78
2021/03/27 09:00:01;;;;;;;2.85;0.47;;;9.60;99.90;;;;;;4983486;28;20046;-75
2021/03/27 09:03:05;;;;;;;4.25;1.15;;;9.90;99.90;;;;;;4959001;28;20031;-77
2021/03/27 09:06:04;;;;;;;0.73;0.73;;;10.10;99.90;;;;;;4966987;28;20033;-77
2021/03/27 09:08:45;;;;;;;3.45;0.90;;;10.40;10.10;;;;;;4964473;28;20034;-78
2021/03/27 09:11:28;;;;;;;4.10;0.60;;;10.40;1.00;;;;;;4974111;28;20098;-74
2021/03/27 09:14:06;;;;;;;1.63;0.93;;;10.40;99.90;;;;;;4970956;28;20023;-76
2021/03/27 09:16:56;;;;;;;0.73;0.50;;;10.20;99.90;;;;;;4970175;28;20051;-77
2021/03/27 09:19:40;;;;;;;1.17;0.60;;;10.30;99.90;;;;;;4967771;28;20083;-77
2021/03/27 09:22:31;;;;;;;1.13;0.50;;;10.60;99.90;;;;;;4955771;29;20035;-76
2021/03/27 09:25:00;;;;;;;3.20;0.52;;;10.70;99.90;;;;;;4958551;28;20030;-76
2021/03/27 09:27:34;;;;;;;0.43;0.40;;;10.90;99.90;;;;;;4974499;28;20077;-75
2021/03/27 09:30:12;;;;;;;0.80;0.30;;;10.80;99.90;;;;;;4978804;28;20082;-77
2021/03/27 09:32:56;;;;;;;2.22;0.73;;;10.80;99.90;;;;;;4972127;28;20035;-78
2021/03/27 09:35:34;;;;;;;1.42;0.60;;;10.90;99.90;;;;;;4975683;28;20031;-77
2021/03/27 09:38:34;;;;;;;0.95;0.50;;;11.00;99.90;;;;;;4965698;28;20053;-77
2021/03/27 09:41:58;;;;;;;1.10;0.60;;;10.80;99.90;;;;;;4968801;28;20035;-78
2021/03/27 09:44:55;;;;;;;0.63;0.30;;;10.80;99.90;;;;;;4887897;29;20029;-77
2021/03/27 09:48:02;;;;;;;2.22;0.60;;;11.10;99.90;;;;;;4895429;29;20071;-78
2021/03/27 09:50:46;;;;;;;1.42;0.60;;;11.10;99.90;;;;;;4964044;28;20046;-78
2021/03/27 09:54:03;;;;;;;0.55;0.40;;;11.20;99.90;;;;;;4961438;29;20103;-79
2021/03/27 09:57:11;;;;;;;1.25;0.50;;;11.10;99.90;;;;;;4957686;29;20039;-78
2021/03/27 09:59:46;;;;;;;1.60;0.65;;;11.20;99.90;;;;;;4934280;29;20027;-78
2021/03/27 10:02:38;;;;;;;1.13;0.40;;;11.20;99.90;;;;;;4931280;29;20050;-78
2021/03/27 10:05:37;;;;;;;3.17;0.75;;;11.30;99.90;;;;;;4930038;29;20502;-78
2021/03/27 10:08:28;;;;;;;0.70;0.47;;;11.60;99.90;;;;;;4927448;29;20361;-79
2021/03/27 10:11:16;;;;;;;;;;;11.50;99.90;;;;;;4927604;29;20024;-78
2021/03/27 10:14:28;;;;;;;0.50;0.43;;;11.60;99.90;;;;;;5032020;27;3838776;-78
2021/03/27 10:17:05;;;;;;;1.67;0.60;;;11.90;99.90;;;;;;5140737;28;20053;-79
2021/03/27 10:19:59;;;;;;;1.55;0.63;;;12.10;99.90;;;;;;5139258;28;20046;-78
2021/03/27 10:22:45;;;;;;;2.25;0.50;;;12.10;99.90;;;;;;5118995;28;20394;-78
2021/03/27 10:25:50;;;;;;;1.17;0.60;;;11.40;99.90;;;;;;5123195;28;20024;-78
2021/03/27 10:28:41;;;;;;;1.67;0.50;;;11.80;99.90;;;;;;5118394;28;20055;-78
2021/03/27 10:31:18;;;;;;;1.08;0.35;;;11.20;99.90;;;;;;5114607;28;20487;-78
2021/03/27 10:34:05;;;;;;;1.15;0.47;;;10.90;99.90;;;;;;5115856;28;20050;-79
2021/03/27 10:36:53;;;;;;;0.88;0.43;;;11.10;99.90;;;;;;5104455;28;20012;-78
2021/03/27 10:39:33;;;;;;;0.60;0.30;;;10.80;99.90;;;;;;5118530;28;20020;-79
2021/03/27 10:42:44;;;;;;;0.85;0.40;;;10.40;99.90;;;;;;5116941;28;20034;-79
2021/03/27 10:45:49;;;;;;;0.22;0.22;;;10.30;99.90;;;;;;5128929;28;20066;-79
2021/03/27 10:48:49;;;;;;;0.38;0.35;;;10.20;99.90;;;;;;5099421;28;20043;-79
2021/03/27 10:51:58;;;;;;;2.25;0.60;;;10.30;99.90;;;;;;5116081;28;20028;-81
2021/03/27 10:54:49;;;;;;;0.82;0.40;;;10.10;99.90;;;;;;5115739;28;20530;-78
2021/03/27 10:57:43;;;;;;;0.40;0.30;;;10.20;99.90;;;;;;5116109;28;20506;-77
2021/03/27 11:00:54;;;;;;;1.00;0.60;;;10.90;99.90;;;;;;5117616;28;20032;-79
2021/03/27 11:04:04;;;;;;;1.77;0.83;;;11.50;99.90;;;;;;5115364;28;20038;-79
2021/03/27 11:06:47;;;;;;;1.20;0.45;;;11.90;99.90;;;;;;5138260;28;20027;-79
2021/03/27 11:09:55;;;;;;;1.33;0.70;;;12.10;99.90;;;;;;5119303;28;20020;-79
2021/03/27 11:12:53;;;;;;;1.10;0.70;;;12.50;99.90;;;;;;5100556;28;20346;-80
2021/03/27 11:15:48;;;;;;;0.68;0.40;;;12.50;99.90;;;;;;5116479;28;20119;-79
2021/03/27 11:18:52;;;;;;;1.77;0.77;;;12.80;99.90;;;;;;5114989;28;20491;-79
2021/03/27 11:22:02;;;;;;;1.73;0.40;;;12.80;99.90;;;;;;5108155;28;20024;-78
2021/03/27 11:24:44;;;;;;;0.55;0.30;;;12.70;99.90;;;;;;5045499;28;20591;-73
2021/03/27 11:27:31;;;;;;;2.25;0.60;;;12.50;99.90;;;;;;5110688;28;20036;-77
2021/03/27 11:30:36;;;;;;;2.72;0.50;;;12.10;97.00;;;;;;5109689;28;20039;-74
2021/03/27 11:33:33;;;;;;;1.02;0.52;;;12.30;99.30;;;;;;5097055;28;20032;-79
2021/03/27 11:36:10;;;;;;;1.17;0.65;;;12.00;99.30;;;;;;5106659;28;20023;-74
2021/03/27 11:38:44;;;;;;;2.55;0.50;;;11.70;99.90;;;;;;5107593;28;20544;-73
2021/03/27 11:41:25;;;;;;;3.40;1.13;;;11.80;99.90;;;;;;5108255;28;20028;-77
2021/03/27 11:43:57;;;;;;;2.42;0.80;;;12.30;99.90;;;;;;5109566;28;20078;-76
2021/03/27 11:46:37;;;;;;;1.30;0.80;;;12.60;99.90;;;;;;5118149;28;20037;-75
2021/03/27 11:49:26;;;;;;;1.45;0.40;;;12.80;98.10;;;;;;5100559;28;20088;-75
2021/03/27 11:52:06;;;;;;;1.85;0.50;;;12.60;97.50;;;;;;5078412;28;20033;-77
2021/03/27 11:55:00;;;;;;;1.42;0.50;;;12.30;95.10;;;;;;5099700;28;20440;-75
2021/03/27 11:57:47;;;;;;;1.25;0.50;;;11.90;94.40;;;;;;5100920;28;20024;-75
2021/03/27 12:03:21;;;;;;;1.98;0.60;;;12.00;98.80;;;;;;5103369;28;20054;-75
2021/03/27 12:06:30;;;;;;;2.70;0.73;;;11.80;98.10;;;;;;5098141;28;20563;-73
2021/03/27 12:09:09;;;;;;;2.25;1.25;;;12.20;99.90;;;;;;5096726;28;20028;-75
2021/03/27 12:11:55;;;;;;;2.80;0.63;;;12.70;99.90;;;;;;5096494;28;20051;-75
2021/03/27 12:14:49;;;;;;;2.75;0.90;;;12.70;98.60;;;;;;5079171;28;20028;-75
2021/03/27 12:17:30;;;;;;;2.22;1.10;;;12.40;97.20;;;;;;5096154;28;20027;-75
2021/03/27 12:20:07;;;;;;;1.65;0.60;;;11.80;99.90;;;;;;5079033;28;20040;-74
2021/03/27 12:22:46;;;;;;;2.97;0.73;;;11.80;99.90;;;;;;5090275;28;20028;-73
2021/03/27 12:25:12;;;;;;;3.45;0.77;;;11.80;99.90;;;;;;5100215;28;20031;-75
2021/03/27 12:28:11;;;;;;;1.95;0.73;;;11.80;99.90;;;;;;5118558;28;20036;-76
2021/03/27 12:31:01;;;;;;;0.98;0.50;;;12.40;99.90;;;;;;5103339;28;20514;-74
2021/03/27 12:33:56;;;;;;;1.92;0.80;;;12.90;99.90;;;;;;5099663;28;20027;-74
2021/03/27 12:36:38;;;;;;;3.33;0.68;;;13.20;99.90;;;;;;5085893;28;20391;-76
2021/03/27 12:39:04;;;;;;;1.23;0.60;;;13.10;96.80;;;;;;5088528;28;20021;-74
2021/03/27 12:41:41;;;;;;;2.22;0.95;;;13.10;97.20;;;;;;5065521;22;20038;-75
2021/03/27 12:44:39;;;;;;;3.20;1.55;;;13.00;95.70;;;;;;5038933;28;20397;-83
2021/03/27 12:47:23;;;;;;;1.80;1.00;;;12.90;95.20;;;;;;5034725;28;20481;-74
2021/03/27 12:50:13;;;;;;;1.95;0.80;;;13.00;96.40;;;;;;5035899;28;20444;-74
2021/03/27 12:52:59;;;;;;;2.90;0.50;;;12.90;94.80;;;;;;5014465;28;20037;-72
2021/03/27 12:59:37;;;;;;;1.73;0.70;;;12.30;87.30;;;;;;5001722;28;20022;-79
2021/03/27 13:02:43;;;;;;;1.33;0.60;;;12.00;87.00;;;;;;4999333;28;20044;-77
2021/03/27 13:05:28;;;;;;;1.83;0.52;;;11.70;81.60;;;;;;5002816;28;20421;-73
2021/03/27 13:08:23;;;;;;;3.17;0.70;;;11.70;93.20;;;;;;4997770;28;20089;-74
2021/03/27 13:11:04;;;;;;;0.95;0.52;;;11.90;88.20;;;;;;5016508;28;20025;-73
2021/03/27 13:13:29;;;;;;;;;;;12.20;89.50;;;;;;5018052;28;20041;-75
2021/03/27 13:16:02;;;;;;;3.47;0.95;;;12.50;88.40;;;;;;5014407;28;19906;-77
2021/03/27 13:19:07;;;;;;;1.33;0.32;;;12.60;90.60;;;;;;5015543;28;20018;-74
2021/03/27 13:21:39;;;;;;;1.52;0.50;;;12.90;87.20;;;;;;5013806;28;20037;-75
2021/03/27 13:24:22;;;;;;;3.13;0.80;;;13.10;80.10;;;;;;5015097;28;20021;-75
2021/03/27 13:26:59;;;;;;;2.17;0.60;;;13.00;74.10;;;;;;5015926;28;20026;-74
2021/03/27 13:29:32;;;;;;;2.85;0.60;;;13.10;69.60;;;;;;5020230;28;20026;-74
2021/03/27 13:32:19;;;;;;;1.73;0.80;;;12.80;66.30;;;;;;5015927;28;20397;-74
2021/03/27 13:35:14;;;;;;;1.23;0.60;;;12.50;68.10;;;;;;5008500;28;20045;-75
2021/03/27 13:38:01;;;;;;;2.70;0.60;;;12.40;70.80;;;;;;5014285;28;20026;-72
2021/03/27 13:40:31;;;;;;;2.03;0.68;;;12.10;73.50;;;;;;5006862;28;20096;-74
2021/03/27 13:43:35;;;;;;;2.13;0.73;;;12.10;75.60;;;;;;5015066;28;20021;-73
2021/03/27 13:46:17;;;;;;;2.72;0.73;;;12.30;80.60;;;;;;5013789;28;20045;-73
2021/03/27 13:48:52;;;;;;;1.98;1.33;;;12.30;83.10;;;;;;5012202;28;20033;-74
2021/03/27 13:51:56;;;;;;;0.60;0.55;;;12.20;77.00;;;;;;5016744;28;20528;-75
2021/03/27 13:54:43;;;;;;;3.00;0.65;;;12.10;76.30;;;;;;5025357;28;20049;-74
2021/03/27 13:57:16;;;;;;;2.95;0.82;;;12.30;78.30;;;;;;5013446;28;20057;-74
2021/03/27 14:00:00;;;;;;;4.00;0.90;;;12.30;79.70;;;;;;5022793;28;20038;-75
2021/03/27 14:03:04;;;;;;;1.88;0.55;;;12.20;81.00;;;;;;5000756;28;20049;-73
2021/03/27 14:05:38;;;;;;;1.38;0.70;;;12.20;82.40;;;;;;5004298;28;20494;-69
2021/03/27 14:08:32;;;;;;;4.45;0.80;;;12.10;82.80;;;;;;4999030;28;20517;-74
2021/03/27 14:11:18;;;;;;;1.33;0.80;;;12.00;80.70;;;;;;5012617;28;20037;-73
2021/03/27 14:13:51;;;;;;;1.77;0.68;;;12.20;85.80;;;;;;5027157;28;20045;-76
2021/03/27 14:16:54;;;;;;;1.65;0.50;;;12.30;83.20;;;;;;5023147;28;20037;-74
2021/03/27 14:19:43;;;;;;;2.25;0.60;;;12.00;74.80;;;;;;5020858;28;20022;-75
2021/03/27 14:22:09;;;;;;;3.22;0.85;;;11.90;78.50;;;;;;5013332;28;20046;-75
2021/03/27 14:24:59;;;;;;;3.55;1.17;;;11.70;77.40;;;;;;5015373;28;20030;-74
2021/03/27 14:27:43;;;;;;;3.60;0.73;;;11.40;79.60;;;;;;5014980;28;20089;-75
2021/03/27 14:30:50;;;;;;;1.15;0.60;;;11.50;85.80;;;;;;5015390;28;20081;-76
2021/03/27 14:33:29;;;;;;;3.50;0.60;;;11.80;90.30;;;;;;4988153;28;20346;-74
2021/03/27 14:36:13;;;;;;;2.08;1.00;;;11.70;90.20;;;;;;5013786;28;20026;-74
2021/03/27 14:39:03;;;;;;;3.30;0.60;;;11.90;91.90;;;;;;5009171;28;20045;-75
2021/03/27 14:42:17;;;;;;;2.40;1.05;;;11.80;92.20;;;;;;5013610;28;20025;-76